Página principal
METAR-TAF:

METAR-TAF

Aeroportos :

Aeroporto Internacional de Bujumbura

Bujumbura, Burundi

latitude: 03-19S, longitude: 029-19E, altura: 782 m

Observação actual do tempo

O boletim foi feito há 3 horas e 47 minutos, às 20:00 UTC
Vento calmo
Temperatura 22°C
Humidade 88%
Pressão 1015 hPa
Visibilidade 10 km ou mais
Nuvens dispersasa uma altura de 3000 ft

METAR: HBBA 012000Z 00000KT 9999 SCT030 22/20 Q1015 NOSIG

Hora: 01:47 (23:47 UTC)


TAF: em falta

Observações e previsões do tempo de mais de 4000 aeroportos (mensagens METAR e TAF).

As estações disponíveis são os pontos amarelos e vermelhos sobre o mapa.

Mova o rato sobre o mapa para ver o nome da estação.

Depois clique no ponto para visualizar as observações e previsões meteorológicas.

Para alterar o mapa : clique nos botões verdes com uma cruz preta para aumentar o zoom; no botão verde com uma pitada de zoom; ou nas setas verdes para mapas adjacentes.


METAR-TAF: